createdAt,value
2019-02-07T00:02:16.561Z,98632.02
2019-02-07T00:04:47.903Z,98630.10
2019-02-07T00:07:20.621Z,98632.24
2019-02-07T00:09:50.218Z,98630.31
2019-02-07T00:12:21.960Z,98634.09
2019-02-07T00:14:55.465Z,98624.51
2019-02-07T00:17:24.732Z,98620.59
2019-02-07T00:19:58.984Z,98611.11
2019-02-07T00:22:31.264Z,98613.04
2019-02-07T00:25:01.057Z,98602.51
2019-02-07T00:27:35.857Z,98601.33
2019-02-07T00:30:09.118Z,98600.20
2019-02-07T00:32:38.817Z,98602.21
2019-02-07T00:35:08.696Z,98607.17
2019-02-07T00:37:40.442Z,98607.88
2019-02-07T00:40:13.865Z,98612.50
2019-02-07T00:42:43.931Z,98611.54
2019-02-07T00:45:16.867Z,98609.02
2019-02-07T00:47:48.209Z,98599.83
2019-02-07T00:50:18.794Z,98590.97
2019-02-07T00:52:48.117Z,98593.22
2019-02-07T00:55:18.122Z,98583.98
2019-02-07T00:57:48.194Z,98579.03
2019-02-07T01:00:21.039Z,98578.56
2019-02-07T01:02:50.587Z,98582.22
2019-02-07T01:05:20.806Z,98579.39
2019-02-07T01:07:50.349Z,98580.92
2019-02-07T01:10:24.556Z,98576.98
2019-02-07T01:12:56.760Z,98577.44
2019-02-07T01:15:29.439Z,98573.33
2019-02-07T01:18:01.808Z,98574.39
2019-02-07T01:20:36.069Z,98569.43
2019-02-07T01:23:06.123Z,98568.84
2019-02-07T01:25:36.917Z,98566.23
2019-02-07T01:28:06.958Z,98564.72
2019-02-07T01:30:38.701Z,98565.31
2019-02-07T01:33:10.518Z,98555.95
2019-02-07T01:35:50.703Z,98549.70
2019-02-07T01:38:24.749Z,98551.80
2019-02-07T01:40:55.990Z,98547.80
2019-02-07T01:43:25.525Z,98550.03
2019-02-07T01:45:56.096Z,98549.82
2019-02-07T01:48:25.365Z,98542.84
2019-02-07T01:51:20.254Z,98542.26
2019-02-07T01:57:19.781Z,98534.57
2019-02-07T01:59:49.014Z,98529.73
2019-02-07T02:02:18.574Z,98528.55
2019-02-07T02:04:47.868Z,98529.61
2019-02-07T02:07:17.132Z,98529.48
2019-02-07T02:09:46.561Z,98521.22
2019-02-07T02:12:17.648Z,98516.48
2019-02-07T02:14:46.932Z,98515.19
2019-02-07T02:17:16.197Z,98512.70
2019-02-07T02:19:45.436Z,98510.56
2019-02-07T02:22:14.717Z,98501.72
2019-02-07T02:24:45.242Z,98504.41
2019-02-07T02:27:14.697Z,98501.56
2019-02-07T02:29:45.363Z,98504.75
2019-02-07T02:32:14.591Z,98500.38
2019-02-07T02:34:45.002Z,98503.58
2019-02-07T02:37:16.593Z,98499.92
2019-02-07T02:39:46.112Z,98494.94
2019-02-07T02:42:18.219Z,98496.86
2019-02-07T02:44:53.017Z,98497.23
2019-02-07T02:47:22.254Z,98490.01
2019-02-07T02:49:52.372Z,98481.48
2019-02-07T02:52:21.594Z,98484.68
2019-02-07T02:54:53.177Z,98471.69
2019-02-07T02:57:22.406Z,98463.30
2019-02-07T02:59:52.391Z,98454.34
2019-02-07T03:02:31.705Z,98457.52
2019-02-07T03:05:18.159Z,98458.45
2019-02-07T03:08:05.024Z,98449.72
2019-02-07T03:10:53.032Z,98453.97
2019-02-07T03:13:40.688Z,98455.71
2019-02-07T03:16:34.780Z,98458.41
2019-02-07T03:19:21.673Z,98449.72
2019-02-07T03:22:12.659Z,98429.27
2019-02-07T03:25:13.244Z,98435.64
2019-02-07T03:28:13.861Z,98436.56
2019-02-07T03:31:11.045Z,98423.01
2019-02-07T03:34:17.351Z,98419.48
2019-02-07T03:37:11.346Z,98419.70
2019-02-07T03:40:02.824Z,98409.77
2019-02-07T03:42:58.332Z,98411.31
2019-02-07T03:46:06.501Z,98398.33
2019-02-07T03:49:03.738Z,98408.95
2019-02-07T03:51:57.733Z,98399.98
2019-02-07T03:54:49.264Z,98408.27
2019-02-07T03:57:37.462Z,98399.13
2019-02-07T04:00:36.980Z,98395.56
2019-02-07T04:03:30.101Z,98393.48
2019-02-07T04:06:24.666Z,98385.66
2019-02-07T04:09:11.506Z,98393.70
2019-02-07T04:12:05.518Z,98386.80
2019-02-07T04:14:52.929Z,98388.20
2019-02-07T04:17:41.413Z,98388.86
2019-02-07T04:20:33.542Z,98392.62
2019-02-07T04:23:36.823Z,98391.23
2019-02-07T04:26:29.271Z,98382.18
2019-02-07T04:29:17.061Z,98384.55
2019-02-07T04:32:03.743Z,98374.79
2019-02-07T04:34:58.046Z,98372.20
2019-02-07T04:37:46.312Z,98377.41
2019-02-07T04:40:29.853Z,98377.94
2019-02-07T04:43:09.363Z,98375.54
2019-02-07T04:45:56.838Z,98370.39
2019-02-07T04:48:41.449Z,98362.31
2019-02-07T04:51:34.434Z,98358.27
2019-02-07T04:54:23.976Z,98365.52
2019-02-07T04:57:10.790Z,98362.88
2019-02-07T05:00:01.309Z,98352.17
2019-02-07T05:02:48.135Z,98347.73
2019-02-07T05:05:41.599Z,98355.74
2019-02-07T05:08:29.991Z,98353.04
2019-02-07T05:11:24.027Z,98350.97
2019-02-07T05:14:13.866Z,98350.06
2019-02-07T05:17:12.514Z,98342.58
2019-02-07T05:20:10.999Z,98338.54
2019-02-07T05:22:50.606Z,98332.50
2019-02-07T05:25:39.761Z,98329.83
2019-02-07T05:28:27.286Z,98332.59
2019-02-07T05:31:16.059Z,98331.89
2019-02-07T05:34:10.150Z,98333.00
2019-02-07T05:37:07.909Z,98343.42
2019-02-07T05:39:56.679Z,98336.05
2019-02-07T05:42:52.306Z,98336.42
2019-02-07T05:45:49.311Z,98338.46
2019-02-07T05:48:37.264Z,98331.25
2019-02-07T05:51:28.758Z,98328.51
2019-02-07T05:54:36.340Z,98327.52
2019-02-07T05:57:25.498Z,98328.02
2019-02-07T06:00:08.421Z,98337.73
2019-02-07T06:03:08.884Z,98328.48
2019-02-07T06:05:57.930Z,98326.88
2019-02-07T06:08:46.734Z,98324.28
2019-02-07T06:11:39.626Z,98318.84
2019-02-07T06:14:28.871Z,98320.01
2019-02-07T06:17:16.994Z,98325.36
2019-02-07T06:20:07.896Z,98326.34
2019-02-07T06:22:57.384Z,98324.91
2019-02-07T06:26:03.848Z,98331.16
2019-02-07T06:28:45.615Z,98321.92
2019-02-07T06:31:42.533Z,98337.50
2019-02-07T06:34:42.151Z,98340.66
2019-02-07T06:37:33.244Z,98328.78
2019-02-07T06:40:27.537Z,98325.70
2019-02-07T06:43:09.077Z,98326.42
2019-02-07T06:46:09.653Z,98327.39
2019-02-07T06:49:06.817Z,98326.09
2019-02-07T06:52:00.935Z,98326.22
2019-02-07T06:54:52.259Z,98322.50
2019-02-07T06:57:40.933Z,98317.67
2019-02-07T07:00:32.769Z,98320.42
2019-02-07T07:03:20.944Z,98323.94
2019-02-07T07:06:12.299Z,98318.30
2019-02-07T07:08:58.348Z,98316.13
2019-02-07T07:11:55.200Z,98314.52
2019-02-07T07:15:01.517Z,98317.00
2019-02-07T07:17:48.522Z,98312.82
2019-02-07T07:20:36.398Z,98317.41
2019-02-07T07:23:22.961Z,98325.33
2019-02-07T07:26:13.944Z,98321.03
2019-02-07T07:29:05.601Z,98320.31
2019-02-07T07:32:00.737Z,98319.75
2019-02-07T07:34:54.784Z,98328.54
2019-02-07T07:37:32.744Z,98329.52
2019-02-07T07:40:14.048Z,98327.86
2019-02-07T07:43:05.557Z,98324.36
2019-02-07T07:46:05.788Z,98327.13
2019-02-07T07:48:59.869Z,98328.14
2019-02-07T07:52:07.302Z,98333.13
2019-02-07T07:54:51.217Z,98341.00
2019-02-07T07:57:57.781Z,98327.07
2019-02-07T08:00:44.899Z,98327.52
2019-02-07T08:03:36.014Z,98332.87
2019-02-07T08:32:20.362Z,98353.64
2019-02-07T08:35:10.331Z,98365.66
2019-02-07T08:37:47.461Z,98361.69
2019-02-07T08:40:37.507Z,98369.21
2019-02-07T08:43:38.842Z,98370.41
2019-02-07T08:46:22.871Z,98369.01
2019-02-07T08:49:03.914Z,98363.92
2019-02-07T08:51:51.002Z,98367.83
2019-02-07T08:54:38.016Z,98373.09
2019-02-07T08:57:32.415Z,98363.05
2019-02-07T09:00:22.436Z,98363.02
2019-02-07T09:03:09.631Z,98362.36
2019-02-07T09:06:13.001Z,98356.00
2019-02-07T09:09:04.023Z,98354.73
2019-02-07T09:11:51.183Z,98355.67
2019-02-07T09:14:38.409Z,98354.04
2019-02-07T09:17:19.308Z,98355.73
2019-02-07T09:20:06.578Z,98347.56
2019-02-07T09:23:03.818Z,98352.86
2019-02-07T09:25:59.174Z,98346.94
2019-02-07T09:28:40.663Z,98342.88
2019-02-07T09:31:27.994Z,98344.27
2019-02-07T09:34:35.066Z,98347.48
2019-02-07T09:37:21.943Z,98351.80
2019-02-07T09:40:11.398Z,98346.72
2019-02-07T09:43:08.608Z,98342.35
2019-02-07T09:45:57.773Z,98349.69
2019-02-07T09:48:47.268Z,98348.77
2019-02-07T09:51:52.651Z,98352.45
2019-02-07T09:54:30.594Z,98345.68
2019-02-07T09:57:35.968Z,98345.88
2019-02-07T10:00:24.102Z,98323.64
2019-02-07T10:03:03.700Z,98330.51
2019-02-07T10:05:53.267Z,98341.14
2019-02-07T10:09:06.896Z,98331.98
2019-02-07T10:12:01.010Z,98340.22
2019-02-07T10:14:54.100Z,98335.61
2019-02-07T10:18:00.538Z,98335.09
2019-02-07T10:20:54.752Z,98327.27
2019-02-07T10:23:41.540Z,98317.88
2019-02-07T10:26:32.796Z,98332.33
2019-02-07T10:29:35.987Z,98327.13
2019-02-07T10:32:27.672Z,98323.27
2019-02-07T10:35:23.127Z,98311.69
2019-02-07T10:38:22.985Z,98314.28
2019-02-07T10:41:04.996Z,98312.98
2019-02-07T10:43:49.682Z,98313.03
2019-02-07T10:46:49.789Z,98304.64
2019-02-07T10:49:34.027Z,98304.83
2019-02-07T10:52:20.832Z,98297.84
2019-02-07T10:55:06.229Z,98293.75
2019-02-07T10:57:54.393Z,98303.28
2019-02-07T11:00:57.168Z,98286.62
2019-02-07T11:03:58.483Z,98293.04
2019-02-07T11:06:46.693Z,98292.05
2019-02-07T11:09:33.600Z,98295.13
2019-02-07T11:12:33.788Z,98283.17
2019-02-07T11:15:29.011Z,98288.88
2019-02-07T11:18:20.081Z,98282.12
2019-02-07T11:21:26.868Z,98277.92
2019-02-07T11:24:24.012Z,98275.28
2019-02-07T11:27:10.957Z,98278.81
2019-02-07T11:30:15.794Z,98273.13
2019-02-07T11:33:09.324Z,98271.64
2019-02-07T11:36:07.030Z,98270.48
2019-02-07T11:38:49.093Z,98254.09
2019-02-07T11:41:36.474Z,98255.97
2019-02-07T11:44:27.351Z,98255.17
2019-02-07T11:47:08.517Z,98252.12
2019-02-07T11:49:56.177Z,98249.34
2019-02-07T11:52:41.511Z,98242.78
2019-02-07T11:55:33.023Z,98241.84
2019-02-07T11:58:27.455Z,98240.89
2019-02-07T12:01:24.318Z,98235.81
2019-02-07T12:04:02.129Z,98238.97
2019-02-07T12:06:53.247Z,98230.05
2019-02-07T12:09:40.829Z,98223.73
2019-02-07T12:12:47.185Z,98220.62
2019-02-07T12:15:53.829Z,98223.32
2019-02-07T12:18:40.981Z,98220.62
2019-02-07T12:21:28.102Z,98229.19
2019-02-07T12:24:34.427Z,98215.23
2019-02-07T12:27:31.592Z,98209.44
2019-02-07T12:30:18.361Z,98220.10
2019-02-07T12:33:01.751Z,98212.12
2019-02-07T12:35:54.141Z,98212.27
2019-02-07T12:38:51.396Z,98202.78
2019-02-07T12:41:39.676Z,98209.05
2019-02-07T12:44:19.590Z,98197.93
2019-02-07T12:47:07.735Z,98191.18
2019-02-07T12:49:56.216Z,98193.64
2019-02-07T12:52:53.510Z,98185.96
2019-02-07T12:55:51.667Z,98183.35
2019-02-07T12:58:29.038Z,98178.06
2019-02-07T13:01:17.849Z,98182.16
2019-02-07T13:04:04.921Z,98186.54
2019-02-07T13:07:00.083Z,98186.25
2019-02-07T13:09:51.327Z,98181.43
2019-02-07T13:12:55.523Z,98193.39
2019-02-07T13:16:04.174Z,98181.20
2019-02-07T13:18:46.894Z,98176.08
2019-02-07T13:21:30.906Z,98177.57
2019-02-07T13:24:17.764Z,98172.84
2019-02-07T13:27:06.029Z,98168.20
2019-02-07T13:30:01.252Z,98177.11
2019-02-07T13:32:49.558Z,98175.81
2019-02-07T13:35:38.844Z,98162.02
2019-02-07T13:38:26.240Z,98167.24
2019-02-07T13:41:20.460Z,98161.22
2019-02-07T13:44:07.344Z,98165.75
2019-02-07T13:47:09.491Z,98163.33
2019-02-07T13:49:56.798Z,98166.77
2019-02-07T13:52:44.006Z,98161.86
2019-02-07T13:55:28.086Z,98168.00
2019-02-07T13:58:15.772Z,98162.31
2019-02-07T14:01:03.264Z,98160.00
2019-02-07T14:04:01.714Z,98158.61
2019-02-07T14:06:52.096Z,98166.08
2019-02-07T14:09:46.569Z,98165.81
2019-02-07T14:12:41.549Z,98169.38
2019-02-07T14:15:29.275Z,98163.09
2019-02-07T14:18:23.943Z,98165.96
2019-02-07T14:21:28.842Z,98159.38
2019-02-07T14:24:23.102Z,98161.01
2019-02-07T14:27:10.027Z,98156.70
2019-02-07T14:29:52.589Z,98155.81
2019-02-07T14:32:39.364Z,98168.19
2019-02-07T14:35:28.223Z,98160.38
2019-02-07T14:38:16.105Z,98158.45
2019-02-07T14:41:08.403Z,98169.73
2019-02-07T14:43:49.417Z,98166.70
2019-02-07T14:46:37.662Z,98156.16
2019-02-07T14:49:07.625Z,98163.02
2019-02-07T14:51:37.966Z,98162.70
2019-02-07T14:54:09.459Z,98164.14
2019-02-07T14:56:39.262Z,98166.22
2019-02-07T14:59:08.666Z,98158.92
2019-02-07T15:01:38.872Z,98163.08
2019-02-07T15:04:08.505Z,98157.86
2019-02-07T15:06:38.961Z,98158.16
2019-02-07T15:09:17.660Z,98165.67
2019-02-07T15:11:47.220Z,98168.59
2019-02-07T15:14:17.104Z,98168.06
2019-02-07T15:16:46.925Z,98169.46
2019-02-07T15:19:18.047Z,98170.98
2019-02-07T15:21:47.743Z,98176.05
2019-02-07T15:24:17.445Z,98171.28
2019-02-07T15:26:48.712Z,98166.14
2019-02-07T15:29:19.078Z,98169.20
2019-02-07T15:31:48.414Z,98168.48
2019-02-07T15:34:18.892Z,98169.34
2019-02-07T15:36:50.306Z,98165.52
2019-02-07T15:39:20.723Z,98161.02
2019-02-07T15:41:50.488Z,98166.33
2019-02-07T15:44:21.962Z,98163.56
2019-02-07T15:46:51.265Z,98157.28
2019-02-07T15:49:20.528Z,98161.73
2019-02-07T15:51:50.458Z,98160.42
2019-02-07T15:54:19.536Z,98158.56
2019-02-07T15:56:50.009Z,98169.11
2019-02-07T15:59:38.271Z,98167.35
2019-02-07T16:02:26.794Z,98164.73
2019-02-07T16:04:56.373Z,98163.79
2019-02-07T16:07:25.820Z,98169.52
2019-02-07T16:09:55.485Z,98162.35
2019-02-07T16:12:27.563Z,98157.56
2019-02-07T16:14:57.034Z,98152.33
2019-02-07T16:17:26.528Z,98157.77
2019-02-07T16:19:55.843Z,98164.00
2019-02-07T16:22:26.150Z,98173.73
2019-02-07T16:24:55.449Z,98171.66
2019-02-07T16:27:25.886Z,98168.37
2019-02-07T16:29:55.540Z,98174.63
2019-02-07T16:32:26.553Z,98168.95
2019-02-07T16:34:58.366Z,98172.34
2019-02-07T16:37:29.833Z,98176.22
2019-02-07T16:40:00.097Z,98168.38
2019-02-07T16:42:30.350Z,98175.27
2019-02-07T16:45:01.518Z,98178.10
2019-02-07T16:47:32.742Z,98177.15
2019-02-07T16:50:02.083Z,98172.72
2019-02-07T16:52:35.004Z,98174.66
2019-02-07T16:55:06.243Z,98176.44
2019-02-07T16:57:36.076Z,98171.83
2019-02-07T17:00:12.711Z,98187.63
2019-02-07T17:02:45.254Z,98182.08
2019-02-07T17:05:16.139Z,98180.03
2019-02-07T17:07:47.322Z,98188.66
2019-02-07T17:10:21.073Z,98197.77
2019-02-07T17:12:50.443Z,98192.70
2019-02-07T17:15:19.902Z,98199.45
2019-02-07T17:17:49.592Z,98203.22
2019-02-07T17:20:23.484Z,98204.58
2019-02-07T17:22:52.808Z,98206.89
2019-02-07T17:25:23.055Z,98196.88
2019-02-07T17:27:53.017Z,98204.95
2019-02-07T17:30:23.079Z,98193.40
2019-02-07T17:32:55.259Z,98202.45
2019-02-07T17:35:25.681Z,98199.94
2019-02-07T17:37:55.206Z,98196.22
2019-02-07T17:40:24.776Z,98200.68
2019-02-07T17:42:55.187Z,98207.31
2019-02-07T17:45:27.807Z,98203.70
2019-02-07T17:47:57.643Z,98208.67
2019-02-07T17:50:31.005Z,98210.25
2019-02-07T17:53:00.699Z,98223.70
2019-02-07T17:55:30.964Z,98223.33
2019-02-07T17:58:01.007Z,98229.40
2019-02-07T18:00:49.132Z,98225.47
2019-02-07T18:03:22.268Z,98221.07
2019-02-07T18:05:51.730Z,98219.35
2019-02-07T18:08:21.476Z,98217.52
2019-02-07T18:10:51.726Z,98216.38
2019-02-07T18:13:20.964Z,98219.09
2019-02-07T18:15:53.049Z,98222.97
2019-02-07T18:18:23.670Z,98223.13
2019-02-07T18:20:54.239Z,98225.02
2019-02-07T18:23:27.413Z,98222.59
2019-02-07T18:25:58.164Z,98218.23
2019-02-07T18:28:27.447Z,98222.59
2019-02-07T18:30:57.762Z,98223.86
2019-02-07T18:33:27.337Z,98221.55
2019-02-07T18:36:10.890Z,98225.02
2019-02-07T18:38:41.235Z,98219.10
2019-02-07T18:41:10.749Z,98228.41
2019-02-07T18:43:39.974Z,98223.53
2019-02-07T18:46:09.527Z,98216.52
2019-02-07T18:48:39.162Z,98222.32
2019-02-07T18:51:08.727Z,98227.61
2019-02-07T18:53:37.961Z,98232.53
2019-02-07T18:56:07.228Z,98222.48
2019-02-07T18:58:39.330Z,98229.75
2019-02-07T19:01:09.216Z,98227.19
2019-02-07T19:03:39.182Z,98227.81
2019-02-07T19:06:09.122Z,98231.31
2019-02-07T19:08:38.389Z,98234.41
2019-02-07T19:11:10.881Z,98231.03
2019-02-07T19:13:40.443Z,98228.02
2019-02-07T19:16:15.492Z,98229.33
2019-02-07T19:18:45.118Z,98232.81
2019-02-07T19:21:19.984Z,98232.30
2019-02-07T19:23:49.228Z,98232.18
2019-02-07T19:26:18.459Z,98241.44
2019-02-07T19:28:47.702Z,98240.16
2019-02-07T19:31:19.660Z,98226.78
2019-02-07T19:33:48.903Z,98228.92
2019-02-07T19:36:18.148Z,98223.80
2019-02-07T19:38:47.733Z,98233.06
2019-02-07T19:41:17.370Z,98237.62
2019-02-07T19:43:49.713Z,98231.83
2019-02-07T19:46:20.035Z,98225.91
2019-02-07T19:48:51.717Z,98232.15
2019-02-07T19:51:21.187Z,98232.46
2019-02-07T19:53:50.435Z,98241.16
2019-02-07T19:56:19.937Z,98235.05
2019-02-07T19:58:49.641Z,98238.02
2019-02-07T20:01:19.941Z,98238.06
2019-02-07T20:03:50.016Z,98235.12
2019-02-07T20:06:19.969Z,98241.88
2019-02-07T20:08:50.418Z,98237.75
2019-02-07T20:11:19.655Z,98238.41
2019-02-07T20:13:49.487Z,98250.68
2019-02-07T20:16:18.829Z,98244.92
2019-02-07T20:18:48.087Z,98254.25
2019-02-07T20:21:18.884Z,98255.96
2019-02-07T20:23:48.151Z,98260.05
2019-02-07T20:26:19.910Z,98262.08
2019-02-07T20:28:51.760Z,98258.90
2019-02-07T20:31:21.725Z,98261.48
2019-02-07T20:33:50.990Z,98264.81
2019-02-07T20:36:20.801Z,98271.17
2019-02-07T20:38:50.358Z,98277.28
2019-02-07T20:41:19.782Z,98273.31
2019-02-07T20:43:54.026Z,98278.91
2019-02-07T20:46:24.735Z,98274.42
2019-02-07T20:48:54.175Z,98275.73
2019-02-07T20:51:23.972Z,98288.70
2019-02-07T20:53:53.235Z,98283.63
2019-02-07T20:56:22.780Z,98292.80
2019-02-07T20:58:52.632Z,98287.77
2019-02-07T21:01:23.383Z,98293.64
2019-02-07T21:03:58.602Z,98294.95
2019-02-07T21:06:29.196Z,98288.08
2019-02-07T21:09:00.601Z,98293.02
2019-02-07T21:11:31.168Z,98296.46
2019-02-07T21:14:05.447Z,98296.27
2019-02-07T21:16:37.953Z,98297.89
2019-02-07T21:19:08.816Z,98301.23
2019-02-07T21:21:39.326Z,98312.59
2019-02-07T21:24:12.456Z,98321.37
2019-02-07T21:26:50.764Z,98320.58
2019-02-07T21:29:20.569Z,98315.45
2019-02-07T21:31:50.107Z,98307.39
2019-02-07T21:34:19.597Z,98302.19
2019-02-07T21:36:53.044Z,98315.59
2019-02-07T21:39:23.098Z,98320.98
2019-02-07T21:41:58.063Z,98330.80
2019-02-07T21:44:27.326Z,98319.05
2019-02-07T21:46:57.137Z,98321.36
2019-02-07T21:49:29.268Z,98331.87
2019-02-07T21:52:00.494Z,98337.53
2019-02-07T21:54:32.440Z,98337.09
2019-02-07T21:57:02.076Z,98342.39
2019-02-07T21:59:32.393Z,98347.91
2019-02-07T22:02:04.820Z,98332.13
2019-02-07T22:04:36.681Z,98332.28
2019-02-07T22:07:08.029Z,98327.45
2019-02-07T22:09:38.860Z,98330.78
2019-02-07T22:12:08.113Z,98318.99
2019-02-07T22:14:37.544Z,98332.14
2019-02-07T22:17:07.166Z,98334.25
2019-02-07T22:19:36.944Z,98337.02
2019-02-07T22:22:07.079Z,98330.23
2019-02-07T22:24:36.313Z,98335.99
2019-02-07T22:27:06.179Z,98335.00
2019-02-07T22:29:35.697Z,98343.85
2019-02-07T22:32:05.526Z,98350.13
2019-02-07T22:34:42.757Z,98354.98
2019-02-07T22:37:14.652Z,98345.92
2019-02-07T22:39:50.698Z,98343.78
2019-02-07T22:42:23.122Z,98344.73
2019-02-07T22:44:54.755Z,98340.09
2019-02-07T22:47:26.685Z,98344.69
2019-02-07T22:49:59.608Z,98340.52
2019-02-07T22:52:28.857Z,98350.45
2019-02-07T22:54:58.101Z,98360.16
2019-02-07T22:57:27.610Z,98358.04
2019-02-07T22:59:58.208Z,98358.32
2019-02-07T23:02:27.763Z,98371.55
2019-02-07T23:04:58.932Z,98373.52
2019-02-07T23:07:28.699Z,98376.47
2019-02-07T23:09:59.863Z,98371.63
2019-02-07T23:12:29.961Z,98383.59
2019-02-07T23:15:01.211Z,98385.01
2019-02-07T23:17:31.562Z,98398.55
2019-02-07T23:20:09.234Z,98403.67
2019-02-07T23:22:41.850Z,98409.20
2019-02-07T23:25:14.082Z,98406.05
2019-02-07T23:27:47.808Z,98405.41
2019-02-07T23:33:46.949Z,98400.16
2019-02-07T23:48:37.669Z,98406.67
2019-02-07T23:51:07.989Z,98409.09
2019-02-07T23:53:38.662Z,98412.22
2019-02-07T23:56:09.187Z,98420.20
2019-02-07T23:58:42.017Z,98405.01
